Observations for GUERNSEY AIRPORT, United Kingdom (EGJB)

EGJB 221250Z 27016KT 9999 VCSH FEW020 07/03 Q1004   
EGJB 221220Z 27017KT 9999 -SHRA FEW020 SCT030 07/02 Q1004   
EGJB 221150Z 28012KT 9999 FEW030 07/01 Q1005
EGJB 221120Z 27013KT 9999 FEW030 07/00 Q1005
EGJB 221050Z 29011KT 9999 FEW030 07/01 Q1006
EGJB 221020Z 29014KT 9999 FEW028 07/M01 Q1006   
EGJB 220950Z 29013KT 9999 FEW028 07/01 Q1006
EGJB 220920Z 30013KT 9999 FEW028 07/00 Q1006
EGJB 220850Z 28010KT 9999 -SHRA FEW025 06/00 Q1006  
EGJB 220820Z 30013KT 9999 VCSH FEW025 07/01 Q1006   
EGJB 220750Z 30010KT 9999 FEW025 07/01 Q1007
EGJB 220720Z 30012KT 9999 FEW025 07/01 Q1007
EGJB 220650Z 31013KT 9999 FEW025 06/00 Q1007
EGJB 220620Z 30013KT 9999 FEW025 06/00 Q1007
EGJB 220550Z 30010KT 9999 FEW025 06/00 Q1007
EGJB 220520Z 30009KT 9999 FEW025 07/01 Q1007
EGJB 220450Z 30009KT 9999 FEW025 07/00 Q1008
EGJB 220420Z 32008KT 9999 FEW022 06/00 Q1008
EGJB 220350Z 31012KT 9999 FEW022 07/M01 Q1008   
EGJB 220250Z 31011KT 9999 FEW015 SCT045 06/03 Q1008 
EGJB 220220Z 30012KT 9999 FEW012 SCT020 BKN045 06/05 Q1009 RERA 
EGJB 220150Z 30013KT 9999 RA SCT010 BKN020 06/05 Q1009 RERA 
EGJB 220120Z 23021KT 210V270 6000 +RA SCT007 BKN018 07/06 Q1009 
EGJB 220050Z 21019KT 9999 RA FEW008 SCT012 BKN020 07/06 Q1009   
EGJB 220020Z 21020KT 9999 -RA FEW008 BKN014 08/06 Q1010 
EGJB 212350Z 21017KT 9999 -RA SCT009 BKN030 07/06 Q1011 
EGJB 212320Z 21018KT 9999 -RA SCT011 BKN030 07/05 Q1012 
EGJB 212250Z 21017KT 9999 VCSH SCT011 BKN027 07/06 Q1012
EGJB 212220Z 21019KT 9999 VCSH SCT012 BKN035 07/05 Q1013
EGJB 212150Z 21018KT 9999 VCSH FEW011 SCT024 BKN045 07/05 Q1014 
EGJB 212120Z 22018KT 9999 VCSH FEW012 BKN045 07/05 Q1015
EGJB 212050Z 22016KT 9999 FEW012 BKN045 07/05 Q1016 
EGJB 212020Z 22016KT 9999 -SHRA FEW010 BKN043 07/04 Q1016   
EGJB 211950Z 22013KT 9999 FEW010 07/04 Q1016
EGJB 211920Z 22016KT 9999 FEW010 BKN012 BKN020 07/05 Q1017  
EGJB 211850Z 21013KT 9999 -SHRA FEW010 SCT014 BKN020 07/05 Q1018
EGJB 211820Z 22014KT 9999 FEW010 SCT014 07/05 Q1018 
EGJB 211750Z 22013KT 9999 FEW010 SCT014 BKN048 07/04 Q1019  
EGJB 211720Z 22011KT 9999 VCSH FEW010 SCT014 BKN048 07/05 Q1019 
EGJB 211650Z 23011KT 9999 -SHRA FEW010 SCT013 BKN028 06/05 Q1020
EGJB 211620Z 19010KT 9999 -SHRA BKN013 BKN020 06/04 Q1020   
EGJB 211550Z 19008KT 9999 -SHRA SCT013 BKN020 06/04 Q1020   
EGJB 211520Z 18009KT 9999 VCSH SCT014 BKN028 06/03 Q1021
EGJB 211450Z 19008KT 9999 SCT014 BKN038 06/03 Q1021 
EGJB 211420Z 18008KT 9999 SCT014 BKN038 06/03 Q1022 
EGJB 211350Z 18007KT 9999 SCT014 BKN038 06/03 Q1022 
EGJB 211320Z 16008KT 9999 FEW014 SCT022 BKN040 06/03 Q1022  
EGJB 211250Z 17004KT 9999 FEW016 BKN022 06/03 Q1023 
EGJB 211220Z 17002KT 9999 SCT022 BKN032 07/03 Q1023